Timeline UpdatesTrip UpdatesNews PostsPvt Posts♥♥Travel TipsAdmin PostsConv PostsFollowed PostsChat RequestsBlog PostsPNR Posts

Disclaimer
Search
 
 
Tue Oct 21, 2014 05:59:56 ISTHomeTrainsΣChainsAtlasPNRForumGalleryNewsFAQTripsMembersLoginFeedback
No Recent News for this Train
Other Trains in the News **new
Latest...
..
Mon Dec 30, 2013 (12:01AM)
⇐ Return Journey: Train# 19038

19037/Avadh Express

Time-Table HAS CHANGED.
Sep 17 2014 (3:47PM)
Change Departure Station:
Change Arrival Station:
Post a Train Travel TipPost a Train Travel Tip **new
Post a Comment/Question/Picture/VideoPost a Comment/Question/Picture/Video
Pantry/Catering
✓ Pantry Car Avbl
✓ Catering Avbl
Loco/Rake Reversals
LJN/Lucknow Junction NER (6);
RSA - Rake Sharing
19037/19038 have RSA with 19039/19040.
Rake/Coach Composition
Wap 4 BRC shed-SLR-S15-S14-S13-S12-S11-S10-S9-S8-S7-S6-S5-S4-S3-S2-S1-PC-B2-B1-A1-GEN-GEN-SLR; Total 23 Coaches
Loco
BDTS-LJN : BRC WAP-4; LJN-GKP : GD WDM-3A ;
News    PNR    Forum    Time-Table    Availability    Fare Chart    Map    Arr/Dep History    Trips    Gallery    ΣChains    X/O    Timeline    
Travel Time: 34h 32m    58 halts    Distance: 1592 km    Avg Speed: 46 km/hr
Type: Mail/Express
Zone: WR/Western
Departs @ 03:08 (Avg on time)
Platform# 1
 M WT S
Surat/ST 
Arrives @ 13:40 +1 night (Avg 11m late)
Platform# 7
S T TF 
Gorakhpur Junction/GKP 

58 halts. 241 intermediate Stations between Surat and Gorakhpur Junction

Show ALL intermediate Stations  Show Old Time-Table

#TrkCodeStation NameX/OArrivesAvgDepartsAvgHaltPFDay#KmSpeedElevZoneAddress
1/==/BDTSMumbai Bandra Terminus (5)  -22:40+011-252.2234mWRMumbai 400050, Maharashtra
2/==/ADHMumbai Andheri (9)  22:56+222:58+32m81-246.04212mWRMumbai, Maharashtra
3/==/BVIMumbai Borivali (8)  23:13 23:16+623:18+85 2m61-233.46719mWRMumbai - 400092, Maharashtra
4/==/BORBoisar (3)  00:19+1200:21+122m22-165.26017mWRBoisar Tel.no-02525-266626, Maharashtra
5/==/VAPIVapi (3)X  01:31+901:33+92m12-94.96327mWRVapi, Gujarat
6/==/BLValsad (3)X  01:58+502:00+62m22-68.76515mWRValsad, Gujarat
7/==/STSurat (4)»X  03:03+003:08+05m120.06519mWRSurat 395001, Gujarat
8/==/AKVAnkleshwar Junction (4)X  03:54+903:56+102m1249.97319mWRAnkleshwar, Gujarat
9/==/BRCVadodara Junction (7)X  05:02+1205:12+2110m32129.87036mWRVadodara 390005, Gujarat
10/==/GDAGodhra Junction (3)  06:15+506:18+53m22203.778122mWRGodhra, Gujarat
11/==/DHDDahod (3)  07:13 07:14+3207:15+322 1m32276.890313mWRDahod, Gujarat
12/==/MGNMeghnagar (3)X  07:37+3707:39+372m12309.974317mWRJhabua, Madhya Pradesh
13/==/BMIBamnia (2)X  08:08+4008:10+402m12345.434392mWRBamnia, Madhya Pradesh
14/==/RTMRatlam Junction (7)  09:30+1209:50+1320m62390.272495mWRRatlam, Madhya Pradesh
15/==/KUHKhachrod (2)X  10:12 10:13+1610:14 10:15+182m22417.824497mWRUjjain, Madhya Pradesh
16/==/NADNagda Junction (4)X  10:55 10:50+111:00 10:55+45m--2431.668468mWRNagda, Madhya Pradesh
17/==/MEPMahidpur Road  11:14 11:10+1011:16 11:12+102m--2448.790493mWCRGogapur, Madhya Pradesh
18/==/VMAVikramgarh Alot (2)X  11:33 11:28+1111:35 11:30+112m22472.673443mWCRKota Division, Madhya Pradesh
19/==/CMUChau Mahla (3)  11:53 11:48+1211:55 11:50+122m22494.466426mWCRJhalawar, Rajasthan
20/==/SVASuwasra (2)  12:08 12:04+1212:10 12:06+132m--2509.867450mWCRSuwasra, Madhya Pradesh
21/==/SGZShamgarh (3)X  12:23 12:18+1312:25 12:20+132m--2523.265463mWCRMandsaur, Madhya Pradesh
22/==/GOHGaroth (2)  12:33 12:30+1312:35 12:32+142m22534.085441mWCRMadhya Pradesh 458880, Madhya Pradesh
23/==/BWMBhawani Mandi (3)X  12:53 12:48+1412:55 12:50+152m--2556.776384mWCRBhawani Mandi, Madhya Pradesh
24/==/JHWJhalawar Road (3)  13:08 13:03+1513:10 13:05+162m--2573.274361mWCRJhalawar City, Rajasthan
25/==/RMARamganj Mandi Junction (3)  13:20 13:15+1613:22 13:17+162m--2585.554358mWCRRamganj Mandi, Rajasthan
26/==/MKXMorak (2)  13:32 13:27+1513:34 13:29+152m22594.681337mWCRMorak, Rajasthan
27/==/DKNTDakaniya Talav (2)  14:13 14:08+2214:15 14:10+232m12647.522278mWCRKota, Rajasthan
28/==/KOTAKota Junction (5)X  14:40 14:35+1314:50 14:40+1810 5m12656.889256mWCRKota, Rajasthan
29/==/LKELakheri (3)  15:23 15:21+2915:25 15:23+312m22717.455228mWCRBundi, Rajasthan
30/==/IDGIndargarh Sumerganj Mandi (2)X  15:35+3315:37+352m22728.478247mWCRIndargarh, Rajasthan
31/==/SWMSawai Madhopur Junction (4)  16:25 16:05+3416:30 16:10+335m--2764.651266mWCRSawai Madhopur, Rajasthan
32/==/GGCGangapur City (3)X  17:24 17:25+1817:25 17:30+201 5m--2828.568270mWCRGangapur, Rajasthan
33/==/SMBJShri Mahabirji (3)  17:50 18:00+2317:52 18:02+232m22862.661240mWCRKarauli, Rajasthan
34/==/HANHindaun City (2)  18:02 18:12+2318:04 18:14+232m--2872.828230mWCRKarauli, Rajasthan
35/==/BXNBayana Junction (3)  19:20 19:25+219:25 19:30+45m12905.771198mWCRBayana, Rajasthan
36/--/RBSRupbas (2)X  20:09 19:59+1120:11 20:01+152m12939.857178mNCRJAGNER ROAD, Rajasthan
37/--/FTSFatehpur Sikri (2)  20:31 20:16+1420:33 20:18+192m12954.050176mNCRAgra, Uttar Pradesh
38/--/KLBKiraoli (1)  20:48 20:33+1920:50 20:35+202m12966.428174mNCRKiraoli, Uttar Pradesh
39/-=/IDHIdgah Agra Junction (3)  21:26 21:21+2021:28 21:23+302m12988.18168mNCRAgra, Uttar Pradesh
40/==/AFAgra Fort (3)  21:45 21:40+2421:55 21:50+3410m12990.214170mNCRRakabganj, Uttar Pradesh
41/==/TDLTundla Junction (5)XO  23:25+2523:35+3310m321013.133167mNCRDistt.Firozabad, Uttar Pradesh
42/==/FZDFirozabad (4)X  00:05+3100:07+332m231029.757164mNCRFirozabad, Uttar Pradesh
43/==/SKBShikohabad Junction (4)X  00:28+3100:30+362m231049.585166mNCRDistrict Firozabad, Uttar Pradesh
44/==/ETWEtawah (5)X  01:09+3801:11+442m331104.970154mNCRDistt. Etawah, Uttar Pradesh
45/==/BNTBharthana (3)XO  01:28+5001:30+572m331124.848147mNCRBharthana, Uttar Pradesh
46/==/PHDPhaphund (4)X  02:15+4002:17+482m331161.136146mNCRdist. Auraiya, Uttar Pradesh
47/==/CNBKanpur Central (10)  04:35+304:45+810m--31244.347128mNCRKANPUR-208 001, Uttar Pradesh
48/==/ONUnnao Junction (5)X  05:06 05:07+2905:08 05:09+312m--31261.743129mNRUnnao, Uttar Pradesh
49/==/LJNLucknow Junction NER (6)↵¶06:25+1406:50+1325m431315.612126mNERLucknow, Uttar Pradesh
50/--/LCLucknow City (3)  07:14+1307:16+162m--31320.327127mNERLucknow, Uttar Pradesh
51/--/BNZBadshahnagar (2)  07:30+1707:35 07:32+175 2m--31326.626116mNERLucknow, Uttar Pradesh
52/--/GTNRGomti Nagar (3)  07:41 07:42+1707:43 07:44+182m131330.947117mNERLucknow, Uttar Pradesh
53/--/BBKBarabanki Junction (4)  08:10+1908:12+202m--31351.271122mNRPin-225001, Uttar Pradesh
54/==/BUWBurhwal Junction (3)X  08:40 08:35+2708:42 08:37+272m--31378.369119mNERBarabanki, Uttar Pradesh
55/==/JLDJarwal Road (2)X  09:00 08:51+3209:02 08:53+332m--31394.445112mNERBehraich, Uttar Pradesh
56/==/CLJColonelGanj (2)  09:20 09:16+3309:22 09:18+352m--31411.647108mNERGonda, Uttar Pradesh
57/==%GDGonda Junction (3)X  10:15 09:55+3010:25 10:05+2710m231440.573110mNERGonda 271001, Uttar Pradesh
58%==%MURMankapur Junction (5)X  10:48 10:28+3110:50 10:30+312m--31468.470104mNERDistrict Gonda, Uttar Pradesh
59%==%MSWMaskanwa (2)  11:03 10:42+3211:05 10:44+332m--31482.433103mNERChhapaiya Rd, Uttar Pradesh
60%==%SNCSwami Narayan Chhapia (2)11:13 10:52+1211:14 10:54+131 2m--31486.8-100mNERS Narayan Chpla, Uttar Pradesh
61%==%BVBabhnan (2)  11:20 10:58+3911:22 11:00+392m--31498.162101mNERDistrict- Basti, Uttar Pradesh
62%==%BSTBasti (4)  11:50 11:30+3411:55 11:35+345m231528.97190mNERBasti 272001, Uttar Pradesh
63%==%KLDKhalilabad (3)O  12:18 12:00+3812:20 12:02+382m--31558.51386mNERKhalilabad- 272175, Uttar Pradesh
64%==%MHHMaghar (3)  12:34 12:40+2112:36 12:42+232m--31567.05083mNERNH 28. Distt- SantKabirNagar- 272173, Uttar Pradesh
65%==%SWASahjanwa (2)X  12:51 12:52+2012:53 12:54+222m--31575.22280mNERGorakhpur - 273209, Uttar Pradesh
66%==%GKPGorakhpur Junction (10)•  13:40+11-731592.4-84mNERGorakhpur 273001, Uttar Pradesh
Scroll to Top
Scroll to Bottom